Time;durP1;ratioP1;P1;durP2;ratioP2;P2;SDS_P1;SDS_P2;PMS_P1;PMS_P2;Temp;Humidity;BMP_temperature;BMP_pressure;BME280_temperature;BME280_humidity;BME280_pressure;Samples;Min_cycle;Max_cycle;Signal;HPM_P1;HPM_P2
2022/09/20 00:01:19;;;;;;;3.67;1.50;;;9.50;99.90;;;;;;4997969;28;20276;-55
2022/09/20 00:03:49;;;;;;;3.07;1.73;;;9.40;99.90;;;;;;4998204;28;20240;-55
2022/09/20 00:06:22;;;;;;;5.47;1.40;;;9.40;99.90;;;;;;5000286;28;20226;-55
2022/09/20 00:08:50;;;;;;;5.63;1.77;;;9.40;99.90;;;;;;4998339;28;20217;-55
2022/09/20 00:11:20;;;;;;;4.67;1.40;;;9.30;99.90;;;;;;5006607;28;20641;-56
2022/09/20 00:13:51;;;;;;;4.90;1.60;;;9.30;99.90;;;;;;5005857;28;20237;-54
2022/09/20 00:16:22;;;;;;;4.87;1.60;;;9.30;99.90;;;;;;4997710;28;20229;-55
2022/09/20 00:18:52;;;;;;;6.70;1.73;;;9.30;99.90;;;;;;4997524;28;20248;-54
2022/09/20 00:21:25;;;;;;;4.00;1.50;;;9.20;99.90;;;;;;5000284;28;20234;-55
2022/09/20 00:23:55;;;;;;;5.13;1.80;;;9.20;99.90;;;;;;4997956;28;20695;-55
2022/09/20 00:26:24;;;;;;;11.90;2.33;;;9.20;99.90;;;;;;4997772;28;20222;-55
2022/09/20 00:28:52;;;;;;;5.30;2.03;;;9.20;99.90;;;;;;4996182;28;20241;-53
2022/09/20 00:31:20;;;;;;;4.67;1.40;;;9.20;99.90;;;;;;4997251;28;20230;-54
2022/09/20 00:36:35;;;;;;;7.50;1.60;;;9.20;99.90;;;;;;4999969;28;20226;-55
2022/09/20 00:39:03;;;;;;;3.43;1.50;;;9.10;99.90;;;;;;4997588;28;20269;-54
2022/09/20 00:41:33;;;;;;;4.20;1.60;;;9.00;99.90;;;;;;5003072;28;20226;-54
2022/09/20 00:44:02;;;;;;;4.57;1.60;;;9.10;99.90;;;;;;5005905;28;20275;-55
2022/09/20 00:46:37;;;;;;;5.93;1.90;;;9.10;99.90;;;;;;4997911;28;20238;-55
2022/09/20 00:49:12;;;;;;;7.93;2.30;;;9.10;99.90;;;;;;4998397;28;20226;-55
2022/09/20 00:51:46;;;;;;;6.93;1.90;;;9.20;99.90;;;;;;4997992;28;20635;-55
2022/09/20 00:54:16;;;;;;;2.90;1.60;;;9.20;99.90;;;;;;4997621;28;20237;-54
2022/09/20 00:56:48;;;;;;;5.20;1.30;;;9.20;99.90;;;;;;4997173;28;20229;-55
2022/09/20 00:59:19;;;;;;;6.10;1.90;;;9.20;99.90;;;;;;4997797;28;20631;-54
2022/09/20 01:01:52;;;;;;;5.23;1.80;;;9.10;99.90;;;;;;4997117;28;20249;-56
2022/09/20 01:04:24;;;;;;;3.23;1.50;;;9.00;99.90;;;;;;4996997;28;20297;-55
2022/09/20 01:06:57;;;;;;;4.73;1.30;;;9.00;99.90;;;;;;4999728;28;20657;-55
2022/09/20 01:09:25;;;;;;;4.73;1.73;;;9.00;99.90;;;;;;4997040;28;20234;-54
2022/09/20 01:11:55;;;;;;;3.83;1.40;;;9.00;99.90;;;;;;5005001;28;20237;-54
2022/09/20 01:14:25;;;;;;;4.50;1.70;;;8.90;99.90;;;;;;5004948;28;20234;-55
2022/09/20 01:16:57;;;;;;;3.83;1.67;;;8.90;99.90;;;;;;4996876;28;20306;-55
2022/09/20 01:19:35;;;;;;;4.40;1.70;;;8.90;99.90;;;;;;4996948;28;20246;-54
2022/09/20 01:22:10;;;;;;;3.73;1.57;;;8.90;99.90;;;;;;4996723;28;20229;-54
2022/09/20 01:24:46;;;;;;;3.37;1.80;;;8.80;99.90;;;;;;4996502;28;20276;-55
2022/09/20 01:27:21;;;;;;;4.70;1.37;;;8.80;99.90;;;;;;4996238;28;20253;-55
2022/09/20 01:30:04;;;;;;;4.97;1.80;;;8.80;99.90;;;;;;4977031;28;20230;-55
2022/09/20 01:32:44;;;;;;;4.07;1.20;;;8.80;99.90;;;;;;4976826;28;20580;-55
2022/09/20 01:35:13;;;;;;;3.73;1.47;;;8.80;99.90;;;;;;4984992;28;20229;-55
2022/09/20 01:37:49;;;;;;;4.57;2.07;;;8.90;99.90;;;;;;4996110;28;20221;-54
2022/09/20 01:40:27;;;;;;;5.57;1.90;;;8.90;99.90;;;;;;5003547;28;20646;-54
2022/09/20 01:43:03;;;;;;;5.47;1.87;;;8.90;99.90;;;;;;4999662;28;20689;-55
2022/09/20 01:45:33;;;;;;;6.70;2.10;;;9.00;99.90;;;;;;5000794;28;20237;-55
2022/09/20 01:48:12;;;;;;;5.87;1.87;;;9.00;99.90;;;;;;4996396;28;20230;-54
2022/09/20 01:51:06;;;;;;;5.67;1.97;;;8.90;99.90;;;;;;4995803;28;20682;-54
2022/09/20 01:54:17;;;;;;;4.67;1.70;;;8.90;99.90;;;;;;4995757;28;20688;-56
2022/09/20 01:57:23;;;;;;;2.03;1.60;;;8.90;99.90;;;;;;4991433;28;20292;-55
2022/09/20 02:00:11;;;;;;;3.83;1.70;;;8.80;99.90;;;;;;5002765;28;20268;-55
2022/09/20 02:03:14;;;;;;;5.93;1.63;;;8.70;99.90;;;;;;4998613;28;20241;-54
2022/09/20 02:06:06;;;;;;;4.03;1.57;;;8.80;99.90;;;;;;4993827;28;20321;-55
2022/09/20 02:09:13;;;;;;;4.03;1.60;;;8.70;99.90;;;;;;4990626;28;20226;-55
2022/09/20 02:12:04;;;;;;;4.43;1.80;;;8.70;99.90;;;;;;4998310;28;20272;-54
2022/09/20 02:14:45;;;;;;;4.67;1.70;;;8.60;99.90;;;;;;5003193;28;20237;-54
2022/09/20 02:17:18;;;;;;;5.33;1.77;;;8.70;99.90;;;;;;4995922;28;20225;-54
2022/09/20 02:20:06;;;;;;;3.43;1.97;;;8.70;99.90;;;;;;4996017;28;20257;-55
2022/09/20 02:22:48;;;;;;;10.00;2.27;;;8.70;99.90;;;;;;4976194;28;20247;-55
2022/09/20 02:25:33;;;;;;;5.40;2.30;;;8.70;99.90;;;;;;4975985;28;20233;-55
2022/09/20 02:28:18;;;;;;;4.47;1.77;;;8.70;99.90;;;;;;4982517;28;20767;-54
2022/09/20 02:30:55;;;;;;;3.63;1.77;;;8.70;99.90;;;;;;5014332;28;20252;-55
2022/09/20 02:33:41;;;;;;;4.63;1.73;;;8.60;99.90;;;;;;5003607;28;20228;-53
2022/09/20 02:36:39;;;;;;;3.40;1.90;;;8.60;99.90;;;;;;4997591;28;20230;-54
2022/09/20 02:39:12;;;;;;;5.77;1.70;;;8.60;99.90;;;;;;4995615;28;20248;-55
2022/09/20 02:41:54;;;;;;;4.83;1.80;;;8.60;99.90;;;;;;5002846;28;20234;-54
2022/09/20 02:44:46;;;;;;;2.47;1.73;;;8.50;99.90;;;;;;5003638;28;20233;-55
2022/09/20 02:47:23;;;;;;;3.13;1.80;;;8.40;99.90;;;;;;4995010;28;20236;-55
2022/09/20 02:50:14;;;;;;;3.20;1.50;;;8.50;99.90;;;;;;4994954;28;20264;-54
2022/09/20 02:52:54;;;;;;;3.33;1.53;;;8.60;99.90;;;;;;4994959;28;20226;-55
2022/09/20 02:55:33;;;;;;;3.63;1.87;;;8.60;99.90;;;;;;4994848;28;20689;-56
2022/09/20 02:58:09;;;;;;;6.37;1.57;;;8.50;99.90;;;;;;5002728;28;20236;-54
2022/09/20 03:00:44;;;;;;;4.10;1.77;;;8.60;99.90;;;;;;5014102;28;20237;-55
2022/09/20 03:03:22;;;;;;;3.83;1.87;;;8.60;99.90;;;;;;5014368;28;20268;-54
2022/09/20 03:05:59;;;;;;;5.47;1.70;;;8.70;99.90;;;;;;5005410;28;20624;-54
2022/09/20 03:08:37;;;;;;;2.47;1.80;;;8.70;99.90;;;;;;4994596;28;20293;-54
2022/09/20 03:11:15;;;;;;;4.20;1.80;;;8.70;99.90;;;;;;5003130;28;20554;-54
2022/09/20 03:13:58;;;;;;;4.03;1.80;;;8.70;99.90;;;;;;4999514;28;20229;-54
2022/09/20 03:16:40;;;;;;;2.47;1.57;;;8.60;99.90;;;;;;4975371;28;20238;-55
2022/09/20 03:19:20;;;;;;;3.73;1.63;;;8.70;99.90;;;;;;4975577;28;20354;-54
2022/09/20 03:22:00;;;;;;;3.07;1.67;;;8.70;99.90;;;;;;4975420;28;20344;-55
2022/09/20 03:24:42;;;;;;;3.07;1.50;;;8.60;99.90;;;;;;4975393;28;20222;-54
2022/09/20 03:27:19;;;;;;;4.87;1.50;;;8.60;99.90;;;;;;4978623;28;20292;-55
2022/09/20 03:30:01;;;;;;;3.03;1.50;;;8.50;99.90;;;;;;5013160;28;20240;-54
2022/09/20 03:32:47;;;;;;;3.33;1.70;;;8.50;99.90;;;;;;5013745;28;20244;-54
2022/09/20 03:35:27;;;;;;;2.40;1.67;;;8.60;99.90;;;;;;5010305;28;20233;-54
2022/09/20 03:38:10;;;;;;;2.43;1.50;;;8.60;99.90;;;;;;4994782;28;20276;-54
2022/09/20 03:41:02;;;;;;;2.23;1.60;;;8.70;99.90;;;;;;5001783;28;20686;-53
2022/09/20 03:43:48;;;;;;;3.13;1.40;;;8.80;99.90;;;;;;4973812;28;20317;-54
2022/09/20 03:46:19;;;;;;;3.70;1.60;;;8.80;99.90;;;;;;4975306;28;20233;-54
2022/09/20 03:49:09;;;;;;;1.57;1.30;;;8.80;99.90;;;;;;4975570;28;20273;-54
2022/09/20 03:51:47;;;;;;;2.73;1.40;;;8.90;99.90;;;;;;4978080;28;20253;-55
2022/09/20 03:54:47;;;;;;;2.50;1.20;;;9.00;99.90;;;;;;4987480;28;20230;-54
2022/09/20 03:57:39;;;;;;;3.97;1.40;;;9.00;99.90;;;;;;4998815;28;20229;-54
2022/09/20 04:00:22;;;;;;;4.23;1.43;;;9.00;99.90;;;;;;5013940;28;20692;-55
2022/09/20 04:03:14;;;;;;;3.60;1.40;;;9.00;99.90;;;;;;5014096;28;20284;-54
2022/09/20 04:05:53;;;;;;;2.97;1.50;;;8.90;99.90;;;;;;5005144;28;20566;-54
2022/09/20 04:08:40;;;;;;;1.87;1.40;;;8.80;99.90;;;;;;5014114;28;20229;-55
2022/09/20 04:11:17;;;;;;;3.50;1.87;;;8.80;99.90;;;;;;5003993;28;20681;-54
2022/09/20 04:13:54;;;;;;;4.77;1.90;;;8.70;99.90;;;;;;5002856;28;20256;-54
2022/09/20 04:16:32;;;;;;;1.80;1.40;;;8.70;99.90;;;;;;4998166;28;20229;-55
2022/09/20 04:19:10;;;;;;;3.67;1.93;;;8.70;99.90;;;;;;4998518;28;20704;-54
2022/09/20 04:21:43;;;;;;;1.50;1.40;;;8.60;99.90;;;;;;4997900;28;20233;-54
2022/09/20 04:24:20;;;;;;;2.60;1.80;;;8.60;99.90;;;;;;4990479;28;20237;-55
2022/09/20 04:26:53;;;;;;;3.30;1.63;;;8.60;99.90;;;;;;4997706;28;20230;-54
2022/09/20 04:29:32;;;;;;;2.77;1.70;;;8.50;99.90;;;;;;4997726;28;20237;-54
2022/09/20 04:32:09;;;;;;;2.57;1.33;;;8.60;99.90;;;;;;4997260;28;20709;-54
2022/09/20 04:37:32;;;;;;;1.90;1.50;;;8.60;99.90;;;;;;5001349;28;20234;-55
2022/09/20 04:40:12;;;;;;;3.37;1.40;;;8.50;99.90;;;;;;4999872;28;20244;-55
2022/09/20 04:43:31;;;;;;;1.53;1.20;;;8.50;99.90;;;;;;5001086;28;20308;-55
2022/09/20 04:46:24;;;;;;;2.97;1.60;;;8.50;99.90;;;;;;5014520;28;20221;-55
2022/09/20 04:49:35;;;;;;;3.37;1.50;;;8.40;99.90;;;;;;5017190;28;20229;-54
2022/09/20 04:52:34;;;;;;;5.40;1.93;;;8.40;99.90;;;;;;5004478;28;20296;-55
2022/09/20 04:55:34;;;;;;;1.53;1.43;;;8.50;99.90;;;;;;4977805;28;20246;-54
2022/09/20 04:58:32;;;;;;;1.60;1.50;;;8.40;99.90;;;;;;4996007;28;20238;-53
2022/09/20 05:01:40;;;;;;;2.27;1.53;;;8.40;99.90;;;;;;4996927;28;20636;-55
2022/09/20 05:04:39;;;;;;;4.20;1.33;;;8.40;99.90;;;;;;4996795;28;20226;-54
2022/09/20 05:07:42;;;;;;;2.70;1.27;;;8.40;99.90;;;;;;4996645;28;20686;-53
2022/09/20 05:10:51;;;;;;;2.43;1.30;;;8.40;99.90;;;;;;5000580;28;20640;-54
2022/09/20 05:13:32;;;;;;;2.80;1.47;;;8.40;99.90;;;;;;4993982;28;20229;-54
2022/09/20 05:16:05;;;;;;;4.93;1.40;;;8.40;99.90;;;;;;4995343;28;20226;-54
2022/09/20 05:19:09;;;;;;;2.90;1.53;;;8.40;99.90;;;;;;5008785;28;20228;-54
2022/09/20 05:22:12;;;;;;;2.90;1.40;;;8.40;99.90;;;;;;5015436;28;20567;-54
2022/09/20 05:25:06;;;;;;;2.70;1.20;;;8.30;99.90;;;;;;4974841;28;20261;-55
2022/09/20 05:27:41;;;;;;;2.57;1.30;;;8.30;99.90;;;;;;5000603;28;20241;-54
2022/09/20 05:30:19;;;;;;;2.10;1.27;;;8.30;99.90;;;;;;4995640;28;20232;-54
2022/09/20 05:32:57;;;;;;;2.77;1.30;;;8.30;99.90;;;;;;4997295;28;20237;-54
2022/09/20 05:35:32;;;;;;;2.80;1.60;;;8.30;99.90;;;;;;5009352;28;20237;-54
2022/09/20 05:38:11;;;;;;;3.40;1.50;;;8.40;99.90;;;;;;5013188;28;20232;-54
2022/09/20 05:40:58;;;;;;;1.60;1.50;;;8.40;99.90;;;;;;5009032;28;20256;-54
2022/09/20 05:43:31;;;;;;;2.20;1.53;;;8.50;99.90;;;;;;5000424;28;20228;-53
2022/09/20 05:46:10;;;;;;;2.93;1.40;;;8.50;99.90;;;;;;5006138;28;20228;-54
2022/09/20 05:48:46;;;;;;;3.33;1.50;;;8.50;99.90;;;;;;5006186;28;20290;-54
2022/09/20 05:51:31;;;;;;;2.57;1.37;;;8.60;99.90;;;;;;4997130;28;20217;-54
2022/09/20 05:54:25;;;;;;;1.90;1.40;;;8.70;99.90;;;;;;5001998;28;20705;-53
2022/09/20 05:57:07;;;;;;;3.97;1.70;;;8.80;99.90;;;;;;5001763;28;20233;-55
2022/09/20 05:59:44;;;;;;;4.10;1.47;;;8.90;99.90;;;;;;5004656;28;20230;-55
2022/09/20 06:02:27;;;;;;;4.10;1.23;;;8.90;99.90;;;;;;4993104;28;20241;-54
2022/09/20 06:05:02;;;;;;;8.63;1.57;;;9.00;99.90;;;;;;5002955;28;20249;-55
2022/09/20 06:07:52;;;;;;;3.97;1.47;;;9.20;99.90;;;;;;4997549;28;20233;-54
2022/09/20 06:10:52;;;;;;;3.47;1.27;;;9.20;99.90;;;;;;4999872;28;20620;-54
2022/09/20 06:13:36;;;;;;;1.93;1.40;;;9.40;99.90;;;;;;4995290;28;20254;-54
2022/09/20 06:16:05;;;;;;;2.40;1.43;;;9.40;99.90;;;;;;4997700;28;20241;-55
2022/09/20 06:18:40;;;;;;;4.87;1.73;;;9.50;99.90;;;;;;4996549;28;20230;-54
2022/09/20 06:21:19;;;;;;;8.17;2.10;;;9.60;99.90;;;;;;4997374;28;20241;-54
2022/09/20 06:23:48;;;;;;;3.73;1.97;;;9.70;99.90;;;;;;5008842;28;20232;-55
2022/09/20 06:26:22;;;;;;;3.77;1.77;;;9.70;99.90;;;;;;5005763;28;20277;-55
2022/09/20 06:28:54;;;;;;;5.40;1.90;;;9.80;99.90;;;;;;4996783;28;20583;-55
2022/09/20 06:31:26;;;;;;;3.03;1.70;;;10.00;99.90;;;;;;4996298;28;20309;-53
2022/09/20 06:33:58;;;;;;;3.87;1.60;;;10.10;99.90;;;;;;4996587;28;20234;-53
2022/09/20 06:42:13;;;;;;;3.10;1.43;;;10.70;99.90;;;;;;4995793;28;20245;-54
2022/09/20 06:44:42;;;;;;;2.77;1.60;;;10.90;99.90;;;;;;4996799;28;20233;-56
2022/09/20 06:47:11;;;;;;;2.97;1.30;;;11.00;99.90;;;;;;4984331;28;20234;-55
2022/09/20 06:49:41;;;;;;;2.07;1.50;;;11.30;99.90;;;;;;5012613;28;20237;-55
2022/09/20 06:52:14;;;;;;;2.83;1.90;;;11.60;99.90;;;;;;4990851;28;20238;-55
2022/09/20 06:54:45;;;;;;;1.90;1.17;;;11.80;99.90;;;;;;4995516;28;20232;-54
2022/09/20 06:57:16;;;;;;;8.87;1.47;;;12.20;99.90;;;;;;4991679;28;20278;-56
2022/09/20 06:59:45;;;;;;;3.73;1.30;;;12.50;99.90;;;;;;5002409;28;20727;-56
2022/09/20 07:02:13;;;;;;;3.47;1.47;;;13.00;99.90;;;;;;5007219;28;20633;-56
2022/09/20 07:04:42;;;;;;;3.23;1.20;;;13.20;99.90;;;;;;4993145;28;20297;-56
2022/09/20 07:07:16;;;;;;;4.63;1.10;;;13.30;99.90;;;;;;5002730;28;20246;-56
2022/09/20 07:09:45;;;;;;;3.30;1.00;;;13.30;99.90;;;;;;5008041;28;20251;-54
2022/09/20 07:12:13;;;;;;;4.33;1.33;;;13.50;99.90;;;;;;4994889;28;20217;-56
2022/09/20 07:14:41;;;;;;;3.13;1.27;;;13.60;99.90;;;;;;4995112;28;20248;-56
2022/09/20 07:17:10;;;;;;;3.03;1.30;;;13.60;99.90;;;;;;4992273;28;20248;-54
2022/09/20 07:19:38;;;;;;;2.47;1.00;;;13.60;99.90;;;;;;4994027;28;20240;-56
2022/09/20 07:22:06;;;;;;;4.47;1.43;;;13.70;99.90;;;;;;4994773;28;20245;-56
2022/09/20 07:24:34;;;;;;;2.10;0.97;;;14.00;99.90;;;;;;5002681;28;20224;-56
2022/09/20 07:27:05;;;;;;;3.07;1.20;;;14.20;99.90;;;;;;5012073;28;20651;-56
2022/09/20 07:29:34;;;;;;;4.73;1.10;;;14.50;99.90;;;;;;4998942;28;20221;-56
2022/09/20 07:32:02;;;;;;;3.90;1.00;;;14.60;99.90;;;;;;4993774;28;20229;-56
2022/09/20 07:34:30;;;;;;;5.63;1.00;;;14.60;99.90;;;;;;4994597;28;20233;-54
2022/09/20 07:36:59;;;;;;;3.60;0.80;;;14.70;99.90;;;;;;4992081;28;20226;-56
2022/09/20 07:39:27;;;;;;;4.60;1.17;;;14.70;99.90;;;;;;4999819;28;20236;-56
2022/09/20 07:41:55;;;;;;;2.87;1.03;;;14.70;99.90;;;;;;4994168;28;20244;-56
2022/09/20 07:44:26;;;;;;;4.97;1.40;;;14.80;99.90;;;;;;5002903;28;20236;-56
2022/09/20 07:46:56;;;;;;;5.07;1.10;;;15.00;99.90;;;;;;4998206;28;20596;-56
2022/09/20 07:49:25;;;;;;;2.77;1.10;;;14.80;99.90;;;;;;4997769;28;20221;-57
2022/09/20 07:51:54;;;;;;;2.47;1.03;;;14.80;99.90;;;;;;4997993;28;20222;-57
2022/09/20 07:54:22;;;;;;;4.77;1.20;;;14.80;99.90;;;;;;4997576;28;20233;-57
2022/09/20 07:56:50;;;;;;;5.97;1.27;;;14.90;99.90;;;;;;5002294;28;20233;-56
2022/09/20 07:59:18;;;;;;;5.50;1.60;;;14.90;99.90;;;;;;4998197;28;20615;-57
2022/09/20 08:01:47;;;;;;;7.20;1.30;;;15.00;99.90;;;;;;4995253;28;20244;-56
2022/09/20 08:04:15;;;;;;;4.97;1.40;;;15.20;99.90;;;;;;4997877;28;20597;-56
2022/09/20 08:06:45;;;;;;;6.40;1.30;;;15.30;99.90;;;;;;4997204;28;20229;-56
2022/09/20 08:09:13;;;;;;;3.73;1.10;;;15.50;99.90;;;;;;4981659;28;20236;-56
2022/09/20 08:11:42;;;;;;;4.63;1.13;;;15.80;99.90;;;;;;4997516;28;20226;-57
2022/09/20 08:14:13;;;;;;;5.63;1.30;;;16.20;99.90;;;;;;5004205;28;20224;-56
2022/09/20 08:16:43;;;;;;;7.00;1.60;;;16.20;99.90;;;;;;4996291;28;20229;-57
2022/09/20 08:19:17;;;;;;;9.90;1.67;;;15.90;99.90;;;;;;4990221;28;20234;-57
2022/09/20 08:21:45;;;;;;;5.23;1.27;;;15.80;99.90;;;;;;4997578;28;20289;-57
2022/09/20 08:24:15;;;;;;;6.70;1.30;;;16.10;99.90;;;;;;4997854;28;20242;-57
2022/09/20 08:26:43;;;;;;;6.10;1.40;;;16.60;99.90;;;;;;4996829;28;20237;-57
2022/09/20 08:29:13;;;;;;;4.90;1.10;;;16.70;99.90;;;;;;5000050;28;20226;-57
2022/09/20 08:31:42;;;;;;;7.80;1.60;;;16.70;99.90;;;;;;4996785;28;20609;-57
2022/09/20 08:34:13;;;;;;;6.37;1.33;;;16.50;99.90;;;;;;4989257;28;20230;-57
2022/09/20 08:36:45;;;;;;;5.53;1.40;;;16.60;99.90;;;;;;4999301;28;20238;-57
2022/09/20 08:39:14;;;;;;;5.43;1.50;;;16.90;99.90;;;;;;4996996;28;20246;-58
2022/09/20 08:42:13;;;;;;;6.43;1.30;;;17.30;99.90;;;;;;4998031;28;20717;-56
2022/09/20 08:44:49;;;;;;;5.73;1.50;;;17.70;99.90;;;;;;5002826;28;20240;-57
2022/09/20 08:47:27;;;;;;;5.50;1.73;;;17.90;99.90;;;;;;4991302;28;20237;-58
2022/09/20 08:49:56;;;;;;;8.70;2.00;;;18.10;99.90;;;;;;4997320;28;20601;-58
2022/09/20 08:52:30;;;;;;;6.20;1.40;;;18.00;99.90;;;;;;4997140;28;20269;-55
2022/09/20 08:55:12;;;;;;;5.83;1.40;;;17.70;99.90;;;;;;4995197;28;20234;-58
2022/09/20 08:57:40;;;;;;;8.10;1.47;;;17.80;99.90;;;;;;5000061;28;20635;-58
2022/09/20 09:00:17;;;;;;;4.33;1.20;;;17.90;99.90;;;;;;4996729;28;20222;-58
2022/09/20 09:02:46;;;;;;;6.67;1.40;;;17.90;99.90;;;;;;4999090;28;20242;-57
2022/09/20 09:05:33;;;;;;;4.37;1.13;;;17.70;99.90;;;;;;4997187;28;20273;-58
2022/09/20 09:08:15;;;;;;;8.53;1.60;;;17.70;99.90;;;;;;4997438;28;20240;-58
2022/09/20 09:10:46;;;;;;;6.83;1.57;;;17.90;99.90;;;;;;4996685;28;20242;-58
2022/09/20 09:13:22;;;;;;;6.43;1.30;;;18.30;99.90;;;;;;4999966;28;20226;-58
2022/09/20 09:15:56;;;;;;;7.80;1.63;;;18.50;99.90;;;;;;5002832;28;20237;-57
2022/09/20 09:18:31;;;;;;;6.73;1.97;;;18.80;99.90;;;;;;4996494;28;20241;-58
2022/09/20 09:21:03;;;;;;;4.87;1.70;;;19.10;99.90;;;;;;4995883;28;20223;-58
2022/09/20 09:23:41;;;;;;;5.20;1.30;;;19.30;99.90;;;;;;4995639;28;20244;-58
2022/09/20 09:26:17;;;;;;;5.57;1.53;;;19.40;99.90;;;;;;4993165;28;20234;-56
2022/09/20 09:28:45;;;;;;;5.53;1.30;;;19.60;99.90;;;;;;4995843;28;20248;-58
2022/09/20 09:31:24;;;;;;;6.70;1.53;;;19.80;99.90;;;;;;4999114;28;20231;-58
2022/09/20 09:33:52;;;;;;;8.77;1.50;;;20.20;99.90;;;;;;4999575;28;20227;-58
2022/09/20 09:36:24;;;;;;;4.00;1.50;;;20.20;99.90;;;;;;4998561;28;20240;-58
2022/09/20 09:39:16;;;;;;;7.63;1.40;;;20.30;99.90;;;;;;4995663;28;20650;-58
2022/09/20 09:41:45;;;;;;;6.40;1.37;;;20.00;99.90;;;;;;4997005;28;20281;-55
2022/09/20 09:44:23;;;;;;;6.20;1.17;;;19.80;99.90;;;;;;5007863;28;20237;-58
2022/09/20 09:46:52;;;;;;;5.97;1.20;;;19.70;99.90;;;;;;4995252;28;20232;-57
2022/09/20 09:49:22;;;;;;;5.00;1.30;;;19.70;99.90;;;;;;4995592;28;20583;-58
2022/09/20 09:52:07;;;;;;;4.07;1.10;;;19.60;99.90;;;;;;4994272;28;20229;-58
2022/09/20 09:54:39;;;;;;;4.33;1.30;;;19.70;99.90;;;;;;4999029;28;20278;-58
2022/09/20 09:57:23;;;;;;;4.53;1.10;;;20.00;99.90;;;;;;5000685;28;20232;-58
2022/09/20 10:00:07;;;;;;;7.43;1.37;;;20.50;99.90;;;;;;4999537;28;20240;-58
2022/09/20 10:03:29;;;;;;;3.37;1.07;;;20.90;99.90;;;;;;5000391;28;20328;-58
2022/09/20 10:06:07;;;;;;;4.37;1.20;;;21.10;99.90;;;;;;4995632;28;20299;-58
2022/09/20 10:08:44;;;;;;;4.53;1.27;;;21.40;99.90;;;;;;5002626;28;20232;-58
2022/09/20 10:11:30;;;;;;;4.27;1.10;;;21.20;99.90;;;;;;5002054;28;20231;-58
2022/09/20 10:14:12;;;;;;;4.70;1.53;;;20.90;99.90;;;;;;4998312;28;20294;-58
2022/09/20 10:16:53;;;;;;;5.33;1.33;;;20.30;99.90;;;;;;4999439;28;20233;-58
2022/09/20 10:19:43;;;;;;;6.00;1.53;;;20.00;99.90;;;;;;4999167;28;20231;-58
2022/09/20 10:22:20;;;;;;;4.03;1.53;;;20.00;99.90;;;;;;4997162;28;20232;-58
2022/09/20 10:25:01;;;;;;;5.07;1.70;;;19.60;99.90;;;;;;4997339;28;20278;-57
2022/09/20 10:27:41;;;;;;;4.37;1.27;;;19.90;99.90;;;;;;4995845;28;20291;-58
2022/09/20 10:30:12;;;;;;;8.10;1.63;;;20.60;99.90;;;;;;4991506;28;20700;-58
2022/09/20 10:32:58;;;;;;;7.20;1.60;;;21.10;99.90;;;;;;4997894;28;20236;-58
2022/09/20 10:35:34;;;;;;;4.83;1.10;;;21.50;99.90;;;;;;4996648;28;20282;-57
2022/09/20 10:38:18;;;;;;;5.90;1.23;;;21.50;99.90;;;;;;4998098;28;20641;-58
2022/09/20 10:44:18;;;;;;;4.33;1.20;;;21.50;99.90;;;;;;4994636;28;20231;-58
2022/09/20 10:46:58;;;;;;;5.47;1.10;;;21.30;99.90;;;;;;4996248;28;20655;-58
2022/09/20 10:49:33;;;;;;;6.33;1.30;;;21.10;99.90;;;;;;4999866;28;20240;-57
2022/09/20 10:52:22;;;;;;;5.73;1.10;;;20.80;99.90;;;;;;4999897;28;20234;-58
2022/09/20 10:55:26;;;;;;;5.00;1.37;;;20.10;99.90;;;;;;4993580;28;20704;-57
2022/09/20 10:58:35;;;;;;;8.13;1.20;;;19.50;99.90;;;;;;4959964;28;20268;-58
2022/09/20 11:01:14;;;;;;;5.27;1.40;;;19.50;99.90;;;;;;4993854;28;20243;-58
2022/09/20 11:04:10;;;;;;;5.97;1.67;;;19.30;99.90;;;;;;4991112;28;20244;-58
2022/09/20 11:06:49;;;;;;;7.87;1.43;;;19.40;99.90;;;;;;4998393;28;20238;-58
2022/09/20 11:09:21;;;;;;;7.67;1.40;;;19.30;99.90;;;;;;4995184;28;20274;-58
2022/09/20 11:11:53;;;;;;;9.33;1.50;;;19.50;99.90;;;;;;4998554;28;20236;-58
2022/09/20 11:14:32;;;;;;;4.90;1.10;;;19.70;99.90;;;;;;4995348;28;20277;-58
2022/09/20 11:17:07;;;;;;;5.87;1.40;;;19.90;99.90;;;;;;4994464;28;20622;-58
2022/09/20 11:19:47;;;;;;;4.37;1.30;;;19.80;99.90;;;;;;4992840;28;20249;-57
2022/09/20 11:22:19;;;;;;;4.27;1.30;;;19.40;99.90;;;;;;5000539;28;20227;-57
2022/09/20 11:24:55;;;;;;;9.30;1.57;;;18.90;99.90;;;;;;4999913;28;20243;-57
2022/09/20 11:27:28;;;;;;;6.23;1.40;;;18.40;99.90;;;;;;5001408;28;20245;-57
2022/09/20 11:30:01;;;;;;;6.67;1.47;;;18.00;99.90;;;;;;4995872;28;20714;-58
2022/09/20 11:32:40;;;;;;;4.00;1.13;;;17.70;99.90;;;;;;4993228;28;20241;-57
2022/09/20 11:35:25;;;;;;;6.53;1.23;;;17.60;99.90;;;;;;4994687;28;20239;-58
2022/09/20 11:38:03;;;;;;;5.80;1.30;;;17.70;99.90;;;;;;4997387;28;20234;-58
2022/09/20 11:40:36;;;;;;;4.27;1.10;;;18.10;99.90;;;;;;4994291;28;20234;-59
2022/09/20 11:43:08;;;;;;;5.43;1.13;;;18.50;99.90;;;;;;4995385;28;20689;-58
2022/09/20 11:45:40;;;;;;;4.63;1.40;;;18.40;99.90;;;;;;4998765;28;20231;-58
2022/09/20 11:48:16;;;;;;;6.53;1.30;;;18.50;99.90;;;;;;4994565;28;20229;-57
2022/09/20 11:51:04;;;;;;;5.40;1.40;;;18.60;99.90;;;;;;4994147;28;20247;-57
2022/09/20 11:53:53;;;;;;;3.73;1.10;;;18.80;99.90;;;;;;4994526;28;20237;-57
2022/09/20 11:56:23;;;;;;;5.73;1.40;;;18.90;99.90;;;;;;4998096;28;20225;-58
2022/09/20 11:58:54;;;;;;;5.87;1.30;;;19.00;99.90;;;;;;4997547;28;20232;-57
2022/09/20 12:01:27;;;;;;;6.33;1.30;;;19.30;99.90;;;;;;4998351;28;20223;-58
2022/09/20 12:04:00;;;;;;;4.20;1.30;;;19.70;99.90;;;;;;4998757;28;20224;-58
2022/09/20 12:07:01;;;;;;;7.80;1.20;;;19.60;99.90;;;;;;4999041;28;20307;-58
2022/09/20 12:09:39;;;;;;;4.73;1.13;;;19.20;99.90;;;;;;5000509;28;20272;-58
2022/09/20 12:12:19;;;;;;;4.97;1.23;;;18.70;99.90;;;;;;4996975;28;20235;-58
2022/09/20 12:14:54;;;;;;;6.27;1.37;;;18.40;99.90;;;;;;4997684;28;20229;-58
2022/09/20 12:18:00;;;;;;;4.00;1.27;;;18.00;99.90;;;;;;4995612;28;20229;-57
2022/09/20 12:21:07;;;;;;;4.23;1.20;;;17.90;99.90;;;;;;5000797;28;20237;-58
2022/09/20 12:24:23;;;;;;;3.13;1.13;;;17.70;99.90;;;;;;4997276;28;20238;-57
2022/09/20 12:26:56;;;;;;;4.73;1.27;;;17.90;99.90;;;;;;4992145;28;20585;-57
2022/09/20 12:29:53;;;;;;;4.50;0.93;;;18.10;99.90;;;;;;4994947;28;20231;-57
2022/09/20 12:32:52;;;;;;;3.33;1.03;;;18.40;99.90;;;;;;5000404;28;20240;-58
2022/09/20 12:36:00;;;;;;;5.53;1.30;;;18.50;99.90;;;;;;4984902;28;20234;-58
2022/09/20 12:38:36;;;;;;;3.50;1.03;;;18.70;99.90;;;;;;4996815;28;20233;-57
2022/09/20 12:41:14;;;;;;;3.90;1.10;;;18.80;99.90;;;;;;4999355;28;20250;-58
2022/09/20 12:43:56;;;;;;;5.43;1.27;;;18.90;99.90;;;;;;4998853;28;20226;-57
2022/09/20 12:46:32;;;;;;;4.87;1.00;;;19.10;99.90;;;;;;4999905;28;20235;-57
2022/09/20 12:52:52;;;;;;;4.30;1.20;;;19.30;99.90;;;;;;4973846;28;20228;-57
2022/09/20 12:55:44;;;;;;;4.53;1.00;;;19.10;99.90;;;;;;4998729;28;20236;-58
2022/09/20 12:58:31;;;;;;;9.90;1.40;;;19.10;99.90;;;;;;4995111;28;20229;-57
2022/09/20 13:01:29;;;;;;;6.13;1.10;;;19.10;99.90;;;;;;5004734;28;20255;-58
2022/09/20 13:04:31;;;;;;;5.63;1.20;;;19.10;99.90;;;;;;5002527;28;20227;-58
2022/09/20 13:07:43;;;;;;;2.70;1.10;;;18.60;99.90;;;;;;4999265;28;20243;-57
2022/09/20 13:10:28;;;;;;;4.53;1.03;;;18.50;99.90;;;;;;5001503;28;20230;-57
2022/09/20 13:13:01;;;;;;;4.53;1.30;;;18.00;99.90;;;;;;5004009;28;20589;-57
2022/09/20 13:15:31;;;;;;;6.73;1.77;;;17.90;99.90;;;;;;5004973;28;20465;-55
2022/09/20 13:18:01;;;;;;;4.77;1.10;;;17.50;99.90;;;;;;4998720;28;20219;-56
2022/09/20 13:20:33;;;;;;;5.50;1.17;;;17.30;99.90;;;;;;4995630;28;20601;-56
2022/09/20 13:23:05;;;;;;;4.53;1.20;;;17.10;99.90;;;;;;4997114;28;20231;-56
2022/09/20 13:25:34;;;;;;;8.30;1.40;;;17.30;99.90;;;;;;4996674;28;20236;-56
2022/09/20 13:28:15;;;;;;;6.37;1.03;;;17.20;99.90;;;;;;4997244;28;20610;-55
2022/09/20 13:30:48;;;;;;;5.73;1.07;;;17.50;99.90;;;;;;4996754;28;20324;-56
2022/09/20 13:33:21;;;;;;;5.80;0.90;;;17.50;99.90;;;;;;5005858;28;20678;-58
2022/09/20 13:35:53;;;;;;;3.13;1.23;;;17.60;99.90;;;;;;5008247;28;20226;-59
2022/09/20 13:38:23;;;;;;;5.63;1.20;;;17.80;99.90;;;;;;5008971;28;20235;-58
2022/09/20 13:40:53;;;;;;;3.83;1.20;;;18.00;99.90;;;;;;5015826;28;20681;-57
2022/09/20 13:43:28;;;;;;;6.57;1.30;;;17.90;99.90;;;;;;5008711;28;20222;-58
2022/09/20 13:45:58;;;;;;;3.73;1.00;;;17.70;99.90;;;;;;5026928;28;20229;-59
2022/09/20 13:48:27;;;;;;;4.57;1.10;;;17.50;99.90;;;;;;5028609;28;20266;-57
2022/09/20 13:50:57;;;;;;;3.73;0.90;;;17.40;99.90;;;;;;5024971;28;20238;-58
2022/09/20 13:53:27;;;;;;;4.47;0.93;;;17.30;99.90;;;;;;5009639;28;20238;-58
2022/09/20 13:56:14;;;;;;;4.53;1.30;;;17.30;99.90;;;;;;5018354;28;20287;-58
2022/09/20 13:58:43;;;;;;;3.70;1.10;;;17.40;99.90;;;;;;5028343;28;20240;-58
2022/09/20 14:01:23;;;;;;;3.57;1.07;;;17.30;99.90;;;;;;5027630;28;20246;-57
2022/09/20 14:03:53;;;;;;;4.82;1.33;;;17.40;99.90;;;;;;5015158;28;20451;-59
2022/09/20 14:06:28;;;;;;;3.77;1.37;;;17.40;99.90;;;;;;5007460;28;20294;-58
2022/09/20 14:08:58;;;;;;;4.43;0.90;;;17.40;99.90;;;;;;5008193;28;20229;-59